Logo AVAMET
Benvolgut visitant, si us plau, ingressa Recuperar contrasenya

Xàbia platja de l′Arenal

Dades diàries. Acumulats / Últims 30 dies disponibles

Data Temperatura (°C) Humitat rel. (%) Pressió rel. (hPa) Vent (km/h) Precipitació
Mínima Mitjana Màxima Amplitud
tèrmica
Mínima Mitjana Màxima Mínima Mitjana Màxima Predom. Mitjana Ràfega
màxima
Total
(mm)
Índex-n
Mínima Mitjana Màxima Mínima Mitjana Màxima n
0 a 1
P0 max
mm 5'
Dades mensuals acumulades fins l'últim dia disponible
05/2019 11,3 14,8 20,0 18,8 18,5 22,8 29,8 18,5 28 71 93 1.000 1.013 1.024   5,4 43,5 2,2
Dades anuals acumulades fins l'últim dia disponible
2019 2,3 9,9 20,0 14,4 11,1 18,9 29,8 27,5 21 68 97 993 1.018 1.034   5,0 59,5 371,6
Últims 30 dies disponibles
21-05-2019 15,9     18,6     22,5 6,6 70 82 90 1.012 1.014 1.016 SSO 3,4 24,1 0,2
20-05-2019 12,8     17,9     21,8 9,0 58 70 78 1.010 1.012 1.013 S 5,2 22,5 0,0
19-05-2019 12,8     17,9     22,5 9,7 53 72 89 1.008 1.009 1.011 SSO 5,4 25,7 0,0
18-05-2019 13,4     16,6     18,7 5,3 51 70 80 1.007 1.008 1.009 SSE 3,5 19,3 1,6
17-05-2019 15,8     20,2     26,7 10,9 28 57 83 1.000 1.004 1.009 SO 6,8 43,5 0,0
16-05-2019 16,7     18,9     21,4 4,7 65 75 83 1.004 1.010 1.014 SE 7,7 32,2 0,0
15-05-2019 14,6     18,4     20,4 5,8 59 76 85 1.010 1.011 1.014 NE 6,3 27,4 0,0
14-05-2019 11,7     18,5     25,2 13,5 30 63 86 1.013 1.017 1.020 WSW 8,0 40,2 0,0
13-05-2019 16,3     19,4     23,4 7,1 50 69 86 1.018 1.019 1.020 SE 7,1 37,0 0,0
12-05-2019 15,7     19,9     23,2 7,5 58 73 89 1.018 1.022 1.024 SE 5,3 29,0 0,0
11-05-2019 19,0     21,5     24,2 5,2 57 68 77 1.013 1.017 1.022 NNE 4,3 25,7 0,0
10-05-2019 17,6     23,8     29,8 12,2 41 61 81 1.011 1.012 1.013 SE 5,1 27,4 0,0
09-05-2019 20,0     23,8     27,8 7,8 40 54 72 1.010 1.011 1.013 W 6,1 37,0 0,0
08-05-2019 14,2     21,5     29,4 15,2 40 71 93 1.008 1.011 1.013 SE 2,9 25,7 0,0
07-05-2019 16,4     19,4     22,6 6,2 66 78 87 1.013 1.016 1.018 S 5,1 32,2 0,0
06-05-2019 11,3     16,6     20,3 9,0 67 77 88 1.016 1.017 1.019 W 4,7 27,4 0,0
05-05-2019 14,3     16,8     19,6 5,3 54 68 81 1.010 1.014 1.016 WNW 6,9 29,0 0,0
04-05-2019 11,3     15,8     19,9 8,6 53 71 90 1.010 1.012 1.013 WSW 6,8 37,0 0,0
03-05-2019 12,8     15,4     18,5 5,7 74 80 87 1.009 1.011 1.014 NNE 5,3 33,8 0,4
02-05-2019 14,2     16,7     18,9 4,7 67 81 90 1.013 1.014 1.015 WNW 3,4 20,9 0,0
01-05-2019 13,8     17,6     21,1 7,3 42 76 90 1.012 1.014 1.016 SE 4,5 29,0 0,0
30-04-2019 13,3     17,5     20,8 7,5 64 76 90 1.015 1.016 1.018 S 6,1 27,4 0,0
29-04-2019 12,2     16,3     19,9 7,7 67 78 89 1.016 1.018 1.020 SE 5,3 25,7 0,0
28-04-2019 11,7     17,4     22,9 11,2 35 65 85 1.018 1.021 1.024 WSW 4,3 27,4 0,0
27-04-2019 11,0     16,9     21,2 10,2 39 66 83 1.023 1.024 1.026 SSE 4,2 25,7 0,0
26-04-2019 12,8     17,9     22,5 9,7 35 50 70 1.017 1.020 1.023 SE 4,7 24,1 0,0
25-04-2019 14,9     17,3     20,0 5,1 50 73 88 1.008 1.011 1.016 E 6,9 35,4 0,0
24-04-2019 9,1     15,4     19,4 10,3 45 65 83 1.003 1.008 1.011 S 8,0 48,3 0,0
23-04-2019 10,8     15,9     21,9 11,1 53 79 92 997 998 1.003 SSW 3,9 45,1 0,2
22-04-2019 12,1     14,1     15,9 3,8 77 89 97 999 1.000 1.003 WNW 8,5 41,8 53,4
Últims 13 mesos disponibles
04/2019 8,4 12,1 15,2 16,0 15,4 20,1 28,0 19,6 47 71 90 998 1.012 1.024 WNW 5,7 54,7 337,0
03/2019 7,1 9,6 14,3 14,5 13,6 18,9 27,7 20,6 47 66 88 1.009 1.022 1.029 WSW 5,1 46,7 28,4
02/2019 4,7 7,5 12,2 12,3 12,0 17,6 21,9 17,2 36 67 82 995 1.024 1.032 WSW 4,5 54,7 0,8
01/2019 2,3 7,0 12,2 11,6 11,1 16,8 21,8 19,5 38 64 84 1.002 1.018 1.029 WSW 4,5 59,5 3,2
12/2018 5,3 8,5 10,5 13,0 14,2 18,5 21,8 16,5 57 76 86 1.008 1.024 1.030 WSW 2,9 45,1 20,8
11/2018 6,4 11,7 17,5 15,5 16,8 19,8 24,9 18,5 52 73 91 999 1.014 1.022 WNW 4,3 69,2 116,8
10/2018 9,4 15,4 19,7 19,5 15,1 23,6 27,9 18,5 43 74 87 998 1.013 1.024 4,4 43,5 151,2
09/2018 15,1 21,4 24,4 24,9 24,3 28,2 32,0 16,9 69 78 88 1.011 1.017 1.026 4,5 43,5 110,6
08/2018 20,1 23,5 27,2 27,4 26,4 31,0 37,6 17,5 52 72 84 1.011 1.015 1.020 4,5 38,6 86,0
07/2018 20,1 22,8 25,6 26,9 27,3 30,8 35,2 15,1 5,4 38,6 0,0
06/2018 14,3 19,1 22,8 23,5 22,6 27,4 31,1 16,8 5,4 37,0 12,6
05/2018 8,3 14,8 19,2 18,9 16,4 23,0 28,6 20,3 5,2 43,5 0,6
04/2018 8,9 12,7 17,1 16,6 15,7 20,6 24,7 15,8 5,1 59,5 18,4
Tots els anys disponibles
2018 3,0 14,7 27,2 18,8 9,7 23,0 37,6 34,6 43 75 91 998 1.017 1.030 WSW 4,7 69,2 650,6
2017 0,7 14,5 27,6 18,7 10,4 22,9 34,4 33,7 5,1 80,5 480,4
Temperatura (°C)
Humitat relativa (%)
Velocitat del vent i ràfega màxima (km/h)
Direcció del vent (°)
Pressió (hPa)
Precipitació (mm)
Nota sobre les dades: s'avisa a l'usuari de la provisionalitat i no oficialitat d'aquestes dades
Logo AVAMET blanc
Web allotjada a Sollutia
Llicència de Creative CommonsLa web d'AVAMET i els seus continguts estan subjectes a una llicència de
Reconeixement - No Comercial - Compartir igual
Properes estacions: Altea - Club Nàutic d'Altea (Soci), Ontinyent - El Pilar (Soci), Ares del Maestrat (Ajuntament Soci), Catadau - L'Altet (Inforatge)     - - - - -      Últimes estacions: Jacarilla - centro (MeteOrihuela), Elx - Maitino/Vallverda/Velarde/Matola/Ferriol (Soci TiempoElche.com), Orihuela - Playa Flamenca (MeteOrihuela), Puçol - Ciutat Jardí (Soci), Alzira - La Casella (Soci) - - -